Goulien, France

12:40 AM CEST on April 28, 2017 (GMT +0200)
Kerhouanton | | Change Station

Elev 173 ft 48.05 °N, 4.46 °W | Updated 4 minutes ago

Partly Cloudy
Partly Cloudy
42.1 °F
Feels Like 42 °F
N
0.6
Wind Variable Wind from SW
Gusts 1.9 mph

Today
High -- | Low -- °F
--% Chance of Precip.
Yesterday
High -- | Low -- °F
Precip. -- in
Pressure 30.18 in
Visibility 6.2 miles
Clouds Few 2400 ft
Overcast 4100 ft
Windchill 42 °F
Dew Point 34 °F
Humidity 74%
Rainfall 0.00 in
Snow Depth Not available.
7:05 AM 9:27 PM
Waxing Crescent, 3% visible
METAR LFRL 272230Z AUTO 32006KT 9999 FEW024 OVC041 09/04 Q1022 NOSIG
Pressure 30.18 in
Visibility 6.2 miles
Clouds Few 2400 ft
Overcast 4100 ft
Windchill 42 °F
Dew Point 34 °F
Humidity 74%
Rainfall 0.00 in
Snow Depth Not available.
7:05 AM 9:27 PM
Waxing Crescent, 3% visible
METAR LFRL 272230Z AUTO 32006KT 9999 FEW024 OVC041 09/04 Q1022 NOSIG

Get Severe Weather Alerts

Thanks for signing up!

Be on the lookout for a verification email in your inbox.

You'll start receiving the daily forecast at 8 AM.

×

10-Day Weather Forecast

×

Almanac

Astronomy

Apr. 28, 2017 Rise Set
Actual Time
Civil Twilight
Nautical Twilight
Astronomical Twilight
Moon
Length of Visible Light
Length of Day
Tomorrow will be .
, % of the Moon is Illuminated

Today's Extremes

Country Highs Country Lows

Community

WunderPhotos

WunderBlog® & News

Nearby

Air Quality

  Air Quality AQ Index Pollutant
Not available.

Snow Depth

Station Depth Elevation

Earthquake Activity

City Distance Mag. Time & Date
Minimum magnitude displayed is 2.5.

Coastal Water Temperatures

Place Temperature

Stations

Nearby Weather Stations

Station Location Temp. Windchill Dew Point Humidity Wind Precip. Elev Updated Type